createdAt,value
2019-04-07T00:02:07.558Z,72.76
2019-04-07T00:04:35.179Z,72.34
2019-04-07T00:07:03.722Z,72.71
2019-04-07T00:09:32.017Z,72.97
2019-04-07T00:11:59.690Z,72.97
2019-04-07T00:14:28.150Z,72.75
2019-04-07T00:16:55.875Z,72.79
2019-04-07T00:19:24.609Z,73.07
2019-04-07T00:21:52.538Z,73.07
2019-04-07T00:24:20.636Z,72.86
2019-04-07T00:26:48.725Z,73.04
2019-04-07T00:29:17.360Z,73.04
2019-04-07T00:31:47.851Z,72.71
2019-04-07T00:34:17.526Z,72.71
2019-04-07T00:36:45.906Z,72.50
2019-04-07T00:39:13.688Z,72.50
2019-04-07T00:41:41.767Z,72.92
2019-04-07T00:44:11.745Z,72.94
2019-04-07T00:46:39.791Z,73.18
2019-04-07T00:49:07.474Z,73.18
2019-04-07T00:51:35.980Z,73.15
2019-04-07T00:54:03.675Z,73.15
2019-04-07T00:56:31.327Z,73.18
2019-04-07T00:59:00.328Z,73.18
2019-04-07T01:01:28.479Z,73.33
2019-04-07T01:03:56.825Z,73.33
2019-04-07T01:06:25.230Z,73.51
2019-04-07T01:08:53.064Z,73.68
2019-04-07T01:11:21.626Z,73.68
2019-04-07T01:13:49.657Z,73.72
2019-04-07T01:16:17.405Z,74.10
2019-04-07T01:18:44.990Z,74.16
2019-04-07T01:21:13.001Z,74.16
2019-04-07T01:23:41.431Z,74.77
2019-04-07T01:26:09.699Z,74.77
2019-04-07T01:28:37.913Z,74.52
2019-04-07T01:31:05.612Z,75.00
2019-04-07T01:33:36.777Z,74.48
2019-04-07T01:36:07.287Z,74.82
2019-04-07T01:38:35.776Z,74.80
2019-04-07T01:41:13.631Z,74.80
2019-04-07T01:43:49.370Z,74.47
2019-04-07T01:46:33.114Z,74.47
2019-04-07T01:49:10.872Z,74.71
2019-04-07T01:51:50.447Z,74.66
2019-04-07T01:54:34.554Z,74.42
2019-04-07T01:57:13.499Z,74.71
2019-04-07T02:00:03.168Z,74.71
2019-04-07T02:02:44.679Z,74.63
2019-04-07T02:05:29.899Z,75.08
2019-04-07T02:08:15.460Z,75.20
2019-04-07T02:11:08.235Z,75.20
2019-04-07T02:13:58.389Z,75.29
2019-04-07T02:16:51.181Z,75.42
2019-04-07T02:19:36.897Z,75.72
2019-04-07T02:22:32.861Z,75.72
2019-04-07T02:25:19.930Z,75.28
2019-04-07T02:28:12.642Z,75.69
2019-04-07T02:30:58.919Z,75.75
2019-04-07T02:33:39.674Z,76.06
2019-04-07T02:36:26.757Z,75.71
2019-04-07T02:39:13.898Z,76.29
2019-04-07T02:42:06.824Z,76.21
2019-04-07T02:45:09.109Z,76.21
2019-04-07T02:47:44.594Z,76.46
2019-04-07T02:50:40.251Z,76.09
2019-04-07T02:53:33.037Z,76.09
2019-04-07T02:56:20.790Z,76.20
2019-04-07T02:58:54.914Z,76.64
2019-04-07T03:01:29.658Z,76.64
2019-04-07T03:04:20.429Z,76.69
2019-04-07T03:07:13.591Z,76.69
2019-04-07T03:09:58.598Z,76.94
2019-04-07T03:12:51.713Z,77.11
2019-04-07T03:15:38.819Z,77.11
2019-04-07T03:18:38.898Z,77.60
2019-04-07T03:21:31.512Z,77.60
2019-04-07T03:24:27.255Z,77.80
2019-04-07T03:27:19.983Z,77.10
2019-04-07T03:29:58.915Z,77.79
2019-04-07T03:32:50.943Z,77.79
2019-04-07T03:35:30.540Z,77.52
2019-04-07T03:38:10.216Z,77.60
2019-04-07T03:40:51.672Z,77.35
2019-04-07T03:43:42.703Z,77.48
2019-04-07T03:46:16.115Z,77.96
2019-04-07T03:49:06.054Z,77.42
2019-04-07T03:51:58.575Z,77.60
2019-04-07T03:54:43.540Z,77.27
2019-04-07T03:57:33.143Z,77.27
2019-04-07T04:00:27.654Z,77.70
2019-04-07T04:03:25.695Z,77.75
2019-04-07T04:06:12.806Z,77.91
2019-04-07T04:08:53.191Z,78.10
2019-04-07T04:11:43.644Z,78.14
2019-04-07T04:14:25.433Z,78.14
2019-04-07T04:16:54.359Z,77.70
2019-04-07T04:19:22.683Z,77.70
2019-04-07T04:21:51.083Z,78.27
2019-04-07T04:24:19.871Z,78.18
2019-04-07T04:26:47.877Z,77.81
2019-04-07T04:29:17.463Z,77.84
2019-04-07T04:31:47.853Z,78.41
2019-04-07T04:34:15.826Z,78.33
2019-04-07T04:36:44.584Z,78.08
2019-04-07T04:39:13.051Z,78.08
2019-04-07T04:41:42.582Z,78.45
2019-04-07T04:44:10.444Z,78.45
2019-04-07T04:46:38.760Z,78.35
2019-04-07T04:49:06.762Z,78.35
2019-04-07T04:51:37.856Z,78.92
2019-04-07T04:54:05.050Z,78.92
2019-04-07T04:56:33.239Z,78.51
2019-04-07T04:59:01.215Z,78.51
2019-04-07T05:01:28.902Z,78.17
2019-04-07T05:03:56.589Z,78.17
2019-04-07T05:06:24.324Z,78.51
2019-04-07T05:08:52.714Z,78.51
2019-04-07T05:11:21.212Z,78.58
2019-04-07T05:13:50.457Z,78.18
2019-04-07T05:16:21.341Z,78.18
2019-04-07T05:18:49.428Z,78.81
2019-04-07T05:21:17.135Z,78.81
2019-04-07T05:23:45.099Z,78.29
2019-04-07T05:26:13.547Z,78.43
2019-04-07T05:28:41.313Z,77.96
2019-04-07T05:31:08.977Z,77.96
2019-04-07T05:33:37.107Z,77.83
2019-04-07T05:36:05.028Z,77.76
2019-04-07T05:38:34.726Z,77.76
2019-04-07T05:41:02.980Z,77.76
2019-04-07T05:43:30.671Z,77.22
2019-04-07T05:45:59.213Z,76.63
2019-04-07T05:48:26.966Z,76.42
2019-04-07T05:51:00.287Z,76.73
2019-04-07T05:53:27.631Z,76.73
2019-04-07T05:55:56.237Z,76.53
2019-04-07T05:58:24.299Z,76.53
2019-04-07T06:00:52.155Z,75.36
2019-04-07T06:03:20.454Z,75.17
2019-04-07T06:05:51.082Z,75.83
2019-04-07T06:08:25.970Z,75.68
2019-04-07T06:10:47.098Z,74.82
2019-04-07T06:13:15.673Z,74.69
2019-04-07T06:15:43.471Z,74.88
2019-04-07T06:18:12.645Z,74.78
2019-04-07T06:20:44.112Z,74.06
2019-04-07T06:23:13.822Z,74.78
2019-04-07T06:25:43.299Z,74.15
2019-04-07T06:28:16.337Z,74.15
2019-04-07T06:30:42.867Z,74.21
2019-04-07T06:33:11.186Z,74.21
2019-04-07T06:35:39.156Z,74.00
2019-04-07T06:38:08.724Z,74.00
2019-04-07T06:40:36.143Z,73.61
2019-04-07T06:43:05.239Z,73.35
2019-04-07T06:45:42.203Z,73.11
2019-04-07T06:48:10.304Z,73.22
2019-04-07T06:50:49.913Z,73.22
2019-04-07T06:53:23.698Z,72.81
2019-04-07T06:56:14.309Z,72.81
2019-04-07T06:58:51.634Z,72.57
2019-04-07T07:01:30.712Z,72.30
2019-04-07T07:04:21.101Z,72.30
2019-04-07T07:06:55.771Z,71.69
2019-04-07T07:09:52.054Z,71.10
2019-04-07T07:12:39.967Z,70.70
2019-04-07T07:15:25.619Z,70.62
2019-04-07T07:18:14.226Z,70.34
2019-04-07T07:20:49.564Z,69.90
2019-04-07T07:23:23.157Z,69.83
2019-04-07T07:25:51.973Z,69.83
2019-04-07T07:28:19.607Z,69.48
2019-04-07T07:30:50.456Z,69.29
2019-04-07T07:33:16.795Z,69.29
2019-04-07T07:35:48.797Z,68.83
2019-04-07T07:38:14.889Z,68.61
2019-04-07T07:40:46.417Z,68.36
2019-04-07T07:43:12.456Z,68.08
2019-04-07T07:45:44.940Z,67.80
2019-04-07T07:48:09.904Z,67.26
2019-04-07T07:50:39.561Z,67.26
2019-04-07T07:53:07.029Z,67.01
2019-04-07T07:55:37.668Z,66.47
2019-04-07T07:58:04.379Z,66.23
2019-04-07T08:00:32.079Z,66.23
2019-04-07T08:03:00.343Z,65.75
2019-04-07T08:05:32.964Z,65.75
2019-04-07T08:07:57.205Z,65.49
2019-04-07T08:10:26.615Z,64.35
2019-04-07T08:12:54.502Z,64.35
2019-04-07T08:15:29.716Z,64.47
2019-04-07T08:17:54.590Z,64.47
2019-04-07T08:20:23.127Z,63.83
2019-04-07T08:22:51.514Z,63.52
2019-04-07T08:25:24.670Z,62.79
2019-04-07T08:27:51.699Z,62.79
2019-04-07T08:30:19.362Z,62.20
2019-04-07T08:32:48.917Z,62.07
2019-04-07T08:35:16.561Z,62.07
2019-04-07T08:37:46.458Z,61.07
2019-04-07T08:40:14.092Z,61.07
2019-04-07T08:42:41.811Z,60.69
2019-04-07T08:45:09.480Z,60.39
2019-04-07T08:47:38.017Z,60.01
2019-04-07T08:50:06.240Z,59.80
2019-04-07T08:52:34.354Z,59.80
2019-04-07T08:55:03.025Z,59.31
2019-04-07T08:57:32.307Z,59.10
2019-04-07T09:00:00.166Z,58.84
2019-04-07T09:02:30.111Z,58.52
2019-04-07T09:04:57.499Z,57.53
2019-04-07T09:07:27.632Z,57.20
2019-04-07T09:09:54.599Z,57.20
2019-04-07T09:12:24.912Z,57.36
2019-04-07T09:14:54.549Z,57.01
2019-04-07T09:17:45.731Z,56.79
2019-04-07T09:20:30.188Z,56.61
2019-04-07T09:23:15.688Z,56.61
2019-04-07T09:26:00.434Z,56.01
2019-04-07T09:28:43.072Z,55.55
2019-04-07T09:31:23.296Z,55.55
2019-04-07T09:34:10.065Z,54.74
2019-04-07T09:37:03.234Z,54.44
2019-04-07T09:39:59.224Z,54.00
2019-04-07T09:42:40.106Z,52.98
2019-04-07T09:45:44.875Z,52.98
2019-04-07T09:48:28.919Z,52.59
2019-04-07T09:51:27.519Z,51.65
2019-04-07T09:54:25.959Z,51.65
2019-04-07T09:57:27.997Z,50.78
2019-04-07T10:00:14.572Z,49.16
2019-04-07T10:03:02.259Z,48.45
2019-04-07T10:05:53.902Z,48.00
2019-04-07T10:08:44.323Z,48.00
2019-04-07T10:11:33.936Z,47.42
2019-04-07T10:14:19.605Z,47.02
2019-04-07T10:16:57.343Z,45.36
2019-04-07T10:19:37.990Z,45.23
2019-04-07T10:22:17.558Z,45.23
2019-04-07T10:25:07.487Z,44.12
2019-04-07T10:28:00.581Z,44.12
2019-04-07T10:30:48.642Z,43.04
2019-04-07T10:33:28.147Z,42.28
2019-04-07T10:36:13.751Z,40.99
2019-04-07T10:39:06.220Z,40.73
2019-04-07T10:42:02.614Z,41.01
2019-04-07T10:44:49.290Z,40.57
2019-04-07T10:47:26.712Z,40.57
2019-04-07T10:50:11.512Z,39.25
2019-04-07T10:53:06.778Z,39.05
2019-04-07T10:55:55.054Z,38.62
2019-04-07T10:58:32.433Z,38.07
2019-04-07T11:01:19.529Z,37.36
2019-04-07T11:04:27.321Z,37.70
2019-04-07T11:07:10.467Z,35.87
2019-04-07T11:10:03.757Z,35.87
2019-04-07T11:12:51.248Z,35.53
2019-04-07T11:16:02.200Z,34.91
2019-04-07T11:18:40.548Z,34.64
2019-04-07T11:21:36.005Z,34.79
2019-04-07T11:24:41.371Z,33.67
2019-04-07T11:27:31.162Z,34.35
2019-04-07T11:30:09.838Z,33.83
2019-04-07T11:32:47.839Z,33.86
2019-04-07T11:35:32.811Z,33.65
2019-04-07T11:38:22.993Z,33.60
2019-04-07T11:41:14.250Z,33.07
2019-04-07T11:44:01.923Z,33.22
2019-04-07T11:46:51.885Z,33.07
2019-04-07T11:49:25.388Z,33.93
2019-04-07T11:52:12.543Z,34.07
2019-04-07T11:55:17.381Z,35.15
2019-04-07T11:58:15.011Z,37.64
2019-04-07T12:01:13.685Z,37.64
2019-04-07T12:03:58.068Z,38.38
2019-04-07T12:06:37.506Z,36.57
2019-04-07T12:09:20.673Z,37.26
2019-04-07T12:12:04.783Z,37.26
2019-04-07T12:15:09.588Z,36.53
2019-04-07T12:17:58.076Z,35.06
2019-04-07T12:21:01.121Z,34.35
2019-04-07T12:23:52.802Z,35.11
2019-04-07T12:26:41.955Z,37.23
2019-04-07T12:29:20.026Z,40.30
2019-04-07T12:32:05.256Z,40.30
2019-04-07T12:34:54.706Z,39.04
2019-04-07T12:37:58.370Z,39.04
2019-04-07T12:41:13.414Z,35.73
2019-04-07T12:43:54.019Z,32.91
2019-04-07T12:46:40.745Z,32.91
2019-04-07T12:49:28.615Z,34.13
2019-04-07T12:52:14.129Z,34.13
2019-04-07T12:55:07.005Z,35.07
2019-04-07T12:57:41.371Z,35.07
2019-04-07T13:00:55.637Z,33.83
2019-04-07T13:03:29.951Z,33.62
2019-04-07T13:06:16.734Z,33.66
2019-04-07T13:09:16.161Z,33.94
2019-04-07T13:12:03.068Z,34.17
2019-04-07T13:14:55.701Z,35.27
2019-04-07T13:17:48.470Z,35.27
2019-04-07T13:20:35.176Z,35.74
2019-04-07T13:23:23.291Z,35.78
2019-04-07T13:26:26.786Z,35.99
2019-04-07T13:29:04.262Z,37.04
2019-04-07T13:31:51.031Z,37.76
2019-04-07T13:34:36.292Z,38.02
2019-04-07T13:37:14.571Z,38.89
2019-04-07T13:39:59.716Z,40.75
2019-04-07T13:42:44.499Z,40.75
2019-04-07T13:45:37.145Z,41.15
2019-04-07T13:48:24.189Z,41.14
2019-04-07T13:51:09.671Z,40.84
2019-04-07T13:54:08.020Z,40.37
2019-04-07T13:56:54.826Z,39.98
2019-04-07T13:59:45.211Z,39.57
2019-04-07T14:02:44.330Z,39.52
2019-04-07T14:05:21.223Z,39.22
2019-04-07T14:08:07.104Z,39.22
2019-04-07T14:10:53.954Z,39.59
2019-04-07T14:13:48.963Z,39.56
2019-04-07T14:16:42.312Z,39.44
2019-04-07T14:19:40.616Z,40.71
2019-04-07T14:22:24.457Z,40.71
2019-04-07T14:25:10.163Z,40.89
2019-04-07T14:27:53.714Z,40.66
2019-04-07T14:33:42.612Z,40.28
2019-04-07T14:36:30.110Z,38.55
2019-04-07T14:39:17.899Z,38.55
2019-04-07T14:42:07.382Z,37.23
2019-04-07T14:45:01.846Z,36.34
2019-04-07T14:47:48.261Z,36.60
2019-04-07T14:50:50.237Z,36.59
2019-04-07T14:53:45.395Z,36.58
2019-04-07T14:56:28.845Z,37.24
2019-04-07T14:59:23.960Z,38.28
2019-04-07T15:02:00.851Z,39.35
2019-04-07T15:04:35.693Z,40.39
2019-04-07T15:07:24.745Z,41.19
2019-04-07T15:09:57.781Z,41.70
2019-04-07T15:12:47.026Z,41.43
2019-04-07T15:15:14.734Z,41.43
2019-04-07T15:17:43.616Z,40.33
2019-04-07T15:20:14.363Z,39.39
2019-04-07T15:22:43.975Z,38.65
2019-04-07T15:25:12.924Z,38.38
2019-04-07T15:27:40.543Z,38.81
2019-04-07T15:30:10.582Z,38.23
2019-04-07T15:32:38.355Z,37.40
2019-04-07T15:35:06.278Z,36.96
2019-04-07T15:37:34.697Z,36.96
2019-04-07T15:40:04.750Z,39.39
2019-04-07T15:42:40.352Z,39.70
2019-04-07T15:45:02.475Z,39.70
2019-04-07T15:47:30.988Z,40.78
2019-04-07T15:49:59.514Z,41.29
2019-04-07T15:52:30.540Z,41.08
2019-04-07T15:54:57.339Z,39.97
2019-04-07T15:57:25.796Z,38.84
2019-04-07T16:00:03.684Z,37.62
2019-04-07T16:02:30.366Z,36.10
2019-04-07T16:05:03.266Z,36.10
2019-04-07T16:07:27.334Z,35.72
2019-04-07T16:09:57.018Z,36.48
2019-04-07T16:12:25.226Z,36.48
2019-04-07T16:14:53.511Z,37.81
2019-04-07T16:17:21.533Z,38.94
2019-04-07T16:19:53.096Z,40.63
2019-04-07T16:22:18.442Z,41.10
2019-04-07T16:24:46.679Z,41.10
2019-04-07T16:27:17.272Z,41.50
2019-04-07T16:29:46.868Z,41.73
2019-04-07T16:32:15.712Z,41.81
2019-04-07T16:34:44.053Z,41.81
2019-04-07T16:37:12.393Z,41.87
2019-04-07T16:39:40.336Z,41.97
2019-04-07T16:42:14.086Z,42.07
2019-04-07T16:44:44.817Z,42.26
2019-04-07T16:47:21.693Z,42.48
2019-04-07T16:49:50.338Z,42.68
2019-04-07T16:52:20.377Z,42.89
2019-04-07T16:54:47.574Z,43.04
2019-04-07T16:57:17.300Z,43.23
2019-04-07T16:59:45.569Z,43.42
2019-04-07T17:02:14.469Z,43.67
2019-04-07T17:04:43.581Z,43.95
2019-04-07T17:07:15.339Z,44.25
2019-04-07T17:09:41.462Z,44.56
2019-04-07T17:12:10.949Z,44.79
2019-04-07T17:14:39.445Z,45.04
2019-04-07T17:17:08.217Z,45.28
2019-04-07T17:19:38.436Z,45.53
2019-04-07T17:22:06.123Z,45.75
2019-04-07T17:24:34.523Z,45.96
2019-04-07T17:27:03.127Z,46.72
2019-04-07T17:29:38.381Z,46.72
2019-04-07T17:32:06.902Z,46.50
2019-04-07T17:34:35.520Z,46.72
2019-04-07T17:37:05.274Z,46.89
2019-04-07T17:39:43.942Z,47.08
2019-04-07T17:42:18.441Z,47.25
2019-04-07T17:45:03.433Z,47.48
2019-04-07T17:47:53.122Z,47.68
2019-04-07T17:50:38.918Z,47.92
2019-04-07T17:53:36.662Z,48.23
2019-04-07T17:56:20.125Z,48.77
2019-04-07T17:59:10.678Z,48.69
2019-04-07T18:01:56.553Z,48.69
2019-04-07T18:05:01.360Z,49.17
2019-04-07T18:07:48.765Z,49.33
2019-04-07T18:10:39.151Z,49.50
2019-04-07T18:13:25.075Z,49.74
2019-04-07T18:16:12.228Z,49.74
2019-04-07T18:18:51.731Z,49.64
2019-04-07T18:21:52.149Z,50.23
2019-04-07T18:24:37.766Z,50.23
2019-04-07T18:27:23.241Z,50.29
2019-04-07T18:29:59.536Z,50.67
2019-04-07T18:32:44.897Z,50.85
2019-04-07T18:35:32.924Z,50.85
2019-04-07T18:38:28.579Z,51.18
2019-04-07T18:41:24.397Z,51.47
2019-04-07T18:44:10.934Z,51.71
2019-04-07T18:47:01.461Z,51.68
2019-04-07T18:49:48.445Z,52.49
2019-04-07T18:52:33.638Z,52.06
2019-04-07T18:55:27.364Z,52.14
2019-04-07T18:58:15.031Z,52.14
2019-04-07T19:01:04.485Z,52.09
2019-04-07T19:03:53.331Z,52.11
2019-04-07T19:06:34.462Z,51.86
2019-04-07T19:09:15.013Z,51.86
2019-04-07T19:12:04.230Z,51.94
2019-04-07T19:14:55.978Z,52.25
2019-04-07T19:17:40.536Z,52.13
2019-04-07T19:20:30.379Z,52.13
2019-04-07T19:23:17.239Z,52.78
2019-04-07T19:26:17.383Z,53.21
2019-04-07T19:28:58.686Z,53.52
2019-04-07T19:31:48.063Z,53.52
2019-04-07T19:34:35.583Z,53.50
2019-04-07T19:37:18.479Z,53.68
2019-04-07T19:40:09.018Z,53.89
2019-04-07T19:42:47.089Z,54.08
2019-04-07T19:45:36.003Z,54.32
2019-04-07T19:48:28.824Z,54.28
2019-04-07T19:51:14.339Z,54.28
2019-04-07T19:54:09.311Z,54.65
2019-04-07T19:56:47.999Z,54.74
2019-04-07T19:59:44.219Z,54.83
2019-04-07T20:02:42.918Z,54.87
2019-04-07T20:05:32.336Z,54.97
2019-04-07T20:08:22.961Z,55.12
2019-04-07T20:11:12.476Z,55.45
2019-04-07T20:14:14.034Z,55.78
2019-04-07T20:17:18.909Z,55.75
2019-04-07T20:19:53.591Z,55.75
2019-04-07T20:22:40.038Z,56.23
2019-04-07T20:25:23.478Z,56.29
2019-04-07T20:28:17.359Z,56.29
2019-04-07T20:31:12.634Z,56.39
2019-04-07T20:34:06.030Z,56.51
2019-04-07T20:36:57.915Z,56.63
2019-04-07T20:39:35.415Z,56.72
2019-04-07T20:42:26.924Z,56.78
2019-04-07T20:45:25.362Z,56.84
2019-04-07T20:48:12.131Z,56.91
2019-04-07T20:51:10.313Z,57.03
2019-04-07T20:53:51.514Z,57.31
2019-04-07T20:56:48.468Z,57.42
2019-04-07T20:59:48.583Z,57.67
2019-04-07T21:02:27.057Z,57.65
2019-04-07T21:05:14.539Z,57.97
2019-04-07T21:08:10.405Z,57.97
2019-04-07T21:10:56.024Z,57.96
2019-04-07T21:13:37.265Z,58.18
2019-04-07T21:16:27.556Z,58.33
2019-04-07T21:19:06.869Z,58.75
2019-04-07T21:21:53.744Z,58.75
2019-04-07T21:24:32.258Z,58.67
2019-04-07T21:27:10.987Z,59.04
2019-04-07T21:29:45.932Z,59.04
2019-04-07T21:32:31.538Z,58.97
2019-04-07T21:35:22.052Z,59.06
2019-04-07T21:38:11.543Z,59.26
2019-04-07T21:40:50.146Z,59.14
2019-04-07T21:43:46.651Z,59.14
2019-04-07T21:46:33.173Z,59.37
2019-04-07T21:49:17.895Z,59.55
2019-04-07T21:51:59.011Z,59.55
2019-04-07T21:54:40.906Z,59.52
2019-04-07T21:57:36.497Z,59.58
2019-04-07T22:00:32.084Z,59.58
2019-04-07T22:03:23.930Z,59.56
2019-04-07T22:06:17.622Z,59.79
2019-04-07T22:08:59.089Z,59.79
2019-04-07T22:11:29.320Z,59.77
2019-04-07T22:13:57.463Z,59.66
2019-04-07T22:16:31.389Z,59.66
2019-04-07T22:18:58.745Z,60.18
2019-04-07T22:21:26.497Z,60.18
2019-04-07T22:23:56.178Z,60.04
2019-04-07T22:26:23.803Z,60.14
2019-04-07T22:28:51.476Z,60.25
2019-04-07T22:31:24.850Z,60.25
2019-04-07T22:33:53.526Z,60.89
2019-04-07T22:36:23.018Z,60.89
2019-04-07T22:38:54.408Z,60.66
2019-04-07T22:41:20.170Z,60.67
2019-04-07T22:43:50.400Z,60.71
2019-04-07T22:46:24.584Z,60.74
2019-04-07T22:48:50.431Z,60.71
2019-04-07T22:51:18.809Z,60.73
2019-04-07T22:53:46.411Z,60.78
2019-04-07T22:56:14.056Z,60.77
2019-04-07T22:58:42.311Z,60.77
2019-04-07T23:01:11.060Z,61.15
2019-04-07T23:03:39.089Z,61.19
2019-04-07T23:06:06.744Z,60.97
2019-04-07T23:08:35.038Z,60.97
2019-04-07T23:11:04.100Z,61.27
2019-04-07T23:13:32.182Z,61.35
2019-04-07T23:16:09.995Z,61.44
2019-04-07T23:18:29.712Z,61.92
2019-04-07T23:20:57.583Z,61.92
2019-04-07T23:23:26.033Z,61.76
2019-04-07T23:25:53.655Z,61.82
2019-04-07T23:28:21.564Z,61.99
2019-04-07T23:30:49.244Z,62.04
2019-04-07T23:33:16.764Z,62.12
2019-04-07T23:35:44.839Z,62.20
2019-04-07T23:38:13.355Z,62.30
2019-04-07T23:40:41.905Z,62.40
2019-04-07T23:43:09.509Z,62.51
2019-04-07T23:45:37.798Z,62.78
2019-04-07T23:48:06.860Z,63.21
2019-04-07T23:50:34.565Z,63.21
2019-04-07T23:53:02.175Z,62.78
2019-04-07T23:55:30.074Z,62.30
2019-04-07T23:57:57.751Z,62.30
